sensor_id;sensor_type;location;lat;lon;timestamp;P1;durP1;ratioP1;P2;durP2;ratioP2
25988;SDS011;13778;48.236;9.894;2023-04-07T00:02:42;13.15;;;8.98;;
25988;SDS011;13778;48.236;9.894;2023-04-07T00:05:32;13.32;;;9.20;;
25988;SDS011;13778;48.236;9.894;2023-04-07T00:08:23;12.50;;;8.30;;
25988;SDS011;13778;48.236;9.894;2023-04-07T00:11:14;12.30;;;8.50;;
25988;SDS011;13778;48.236;9.894;2023-04-07T00:14:05;12.82;;;8.93;;
25988;SDS011;13778;48.236;9.894;2023-04-07T00:16:56;11.35;;;8.15;;
25988;SDS011;13778;48.236;9.894;2023-04-07T00:19:46;12.48;;;8.13;;
25988;SDS011;13778;48.236;9.894;2023-04-07T00:22:37;13.27;;;9.45;;
25988;SDS011;13778;48.236;9.894;2023-04-07T00:25:27;10.23;;;8.07;;
25988;SDS011;13778;48.236;9.894;2023-04-07T00:28:18;13.18;;;8.40;;
25988;SDS011;13778;48.236;9.894;2023-04-07T00:31:10;13.85;;;8.27;;
25988;SDS011;13778;48.236;9.894;2023-04-07T00:36:50;13.15;;;8.02;;
25988;SDS011;13778;48.236;9.894;2023-04-07T00:39:41;11.63;;;8.90;;
25988;SDS011;13778;48.236;9.894;2023-04-07T00:42:32;12.48;;;8.05;;
25988;SDS011;13778;48.236;9.894;2023-04-07T00:45:22;14.15;;;9.05;;
25988;SDS011;13778;48.236;9.894;2023-04-07T00:48:14;12.77;;;8.98;;
25988;SDS011;13778;48.236;9.894;2023-04-07T00:51:04;12.65;;;9.23;;
25988;SDS011;13778;48.236;9.894;2023-04-07T00:53:56;13.80;;;8.98;;
25988;SDS011;13778;48.236;9.894;2023-04-07T00:56:46;16.20;;;9.43;;
25988;SDS011;13778;48.236;9.894;2023-04-07T00:59:37;12.77;;;8.85;;
25988;SDS011;13778;48.236;9.894;2023-04-07T01:02:30;12.32;;;9.13;;
25988;SDS011;13778;48.236;9.894;2023-04-07T01:05:24;13.38;;;8.63;;
25988;SDS011;13778;48.236;9.894;2023-04-07T01:08:19;13.88;;;9.73;;
25988;SDS011;13778;48.236;9.894;2023-04-07T01:11:12;11.10;;;8.48;;
25988;SDS011;13778;48.236;9.894;2023-04-07T01:14:05;11.30;;;8.63;;
25988;SDS011;13778;48.236;9.894;2023-04-07T01:16:56;13.47;;;8.30;;
25988;SDS011;13778;48.236;9.894;2023-04-07T01:19:47;12.77;;;8.55;;
25988;SDS011;13778;48.236;9.894;2023-04-07T01:22:40;15.00;;;10.18;;
25988;SDS011;13778;48.236;9.894;2023-04-07T01:25:34;13.50;;;9.10;;
25988;SDS011;13778;48.236;9.894;2023-04-07T01:28:37;12.00;;;9.15;;
25988;SDS011;13778;48.236;9.894;2023-04-07T01:31:31;15.18;;;9.50;;
25988;SDS011;13778;48.236;9.894;2023-04-07T01:34:23;13.30;;;9.68;;
25988;SDS011;13778;48.236;9.894;2023-04-07T01:37:15;12.05;;;8.68;;
25988;SDS011;13778;48.236;9.894;2023-04-07T01:40:06;12.13;;;8.43;;
25988;SDS011;13778;48.236;9.894;2023-04-07T01:42:57;13.65;;;9.93;;
25988;SDS011;13778;48.236;9.894;2023-04-07T01:45:49;13.25;;;9.40;;
25988;SDS011;13778;48.236;9.894;2023-04-07T01:48:41;14.23;;;9.05;;
25988;SDS011;13778;48.236;9.894;2023-04-07T01:51:31;12.05;;;8.60;;
25988;SDS011;13778;48.236;9.894;2023-04-07T01:54:22;13.23;;;9.48;;
25988;SDS011;13778;48.236;9.894;2023-04-07T01:57:13;13.77;;;9.23;;
25988;SDS011;13778;48.236;9.894;2023-04-07T02:00:04;14.88;;;9.20;;
25988;SDS011;13778;48.236;9.894;2023-04-07T02:02:56;12.80;;;8.97;;
25988;SDS011;13778;48.236;9.894;2023-04-07T02:05:51;15.43;;;9.32;;
25988;SDS011;13778;48.236;9.894;2023-04-07T02:08:45;12.18;;;9.38;;
25988;SDS011;13778;48.236;9.894;2023-04-07T02:11:36;13.05;;;9.35;;
25988;SDS011;13778;48.236;9.894;2023-04-07T02:14:26;13.02;;;9.70;;
25988;SDS011;13778;48.236;9.894;2023-04-07T02:17:17;14.15;;;9.35;;
25988;SDS011;13778;48.236;9.894;2023-04-07T02:20:08;12.13;;;9.43;;
25988;SDS011;13778;48.236;9.894;2023-04-07T02:23:00;17.88;;;9.73;;
25988;SDS011;13778;48.236;9.894;2023-04-07T02:25:51;13.77;;;9.57;;
25988;SDS011;13778;48.236;9.894;2023-04-07T02:28:44;14.45;;;9.85;;
25988;SDS011;13778;48.236;9.894;2023-04-07T02:31:34;15.00;;;9.98;;
25988;SDS011;13778;48.236;9.894;2023-04-07T02:34:25;11.52;;;8.55;;
25988;SDS011;13778;48.236;9.894;2023-04-07T02:37:15;14.52;;;9.38;;
25988;SDS011;13778;48.236;9.894;2023-04-07T02:40:08;12.57;;;9.05;;
25988;SDS011;13778;48.236;9.894;2023-04-07T02:42:58;16.50;;;10.18;;
25988;SDS011;13778;48.236;9.894;2023-04-07T02:45:48;14.30;;;9.60;;
25988;SDS011;13778;48.236;9.894;2023-04-07T02:48:39;12.90;;;9.75;;
25988;SDS011;13778;48.236;9.894;2023-04-07T02:51:30;14.80;;;9.52;;
25988;SDS011;13778;48.236;9.894;2023-04-07T02:54:20;14.30;;;10.15;;
25988;SDS011;13778;48.236;9.894;2023-04-07T02:57:12;12.60;;;8.88;;
25988;SDS011;13778;48.236;9.894;2023-04-07T03:02:53;12.65;;;9.57;;
25988;SDS011;13778;48.236;9.894;2023-04-07T03:05:43;15.65;;;9.57;;
25988;SDS011;13778;48.236;9.894;2023-04-07T03:08:34;14.63;;;9.98;;
25988;SDS011;13778;48.236;9.894;2023-04-07T03:11:24;13.73;;;9.60;;
25988;SDS011;13778;48.236;9.894;2023-04-07T03:14:16;14.95;;;10.05;;
25988;SDS011;13778;48.236;9.894;2023-04-07T03:17:07;13.60;;;9.50;;
25988;SDS011;13778;48.236;9.894;2023-04-07T03:19:57;13.02;;;9.68;;
25988;SDS011;13778;48.236;9.894;2023-04-07T03:22:47;13.98;;;10.18;;
25988;SDS011;13778;48.236;9.894;2023-04-07T03:25:38;14.40;;;10.05;;
25988;SDS011;13778;48.236;9.894;2023-04-07T03:28:28;17.25;;;10.57;;
25988;SDS011;13778;48.236;9.894;2023-04-07T03:31:20;14.45;;;10.57;;
25988;SDS011;13778;48.236;9.894;2023-04-07T03:37:01;15.52;;;10.93;;
25988;SDS011;13778;48.236;9.894;2023-04-07T03:39:51;16.63;;;10.30;;
25988;SDS011;13778;48.236;9.894;2023-04-07T03:42:42;18.90;;;10.52;;
25988;SDS011;13778;48.236;9.894;2023-04-07T03:45:32;16.80;;;10.43;;
25988;SDS011;13778;48.236;9.894;2023-04-07T03:48:24;14.85;;;10.07;;
25988;SDS011;13778;48.236;9.894;2023-04-07T03:54:05;15.73;;;10.68;;
25988;SDS011;13778;48.236;9.894;2023-04-07T03:56:55;17.70;;;11.15;;
25988;SDS011;13778;48.236;9.894;2023-04-07T03:59:46;15.80;;;10.82;;
25988;SDS011;13778;48.236;9.894;2023-04-07T04:02:39;16.55;;;10.57;;
25988;SDS011;13778;48.236;9.894;2023-04-07T04:05:30;15.90;;;10.80;;
25988;SDS011;13778;48.236;9.894;2023-04-07T04:08:21;12.95;;;9.50;;
25988;SDS011;13778;48.236;9.894;2023-04-07T04:11:12;14.55;;;10.30;;
25988;SDS011;13778;48.236;9.894;2023-04-07T04:14:02;16.08;;;10.57;;
25988;SDS011;13778;48.236;9.894;2023-04-07T04:16:53;16.17;;;10.30;;
25988;SDS011;13778;48.236;9.894;2023-04-07T04:19:43;13.05;;;9.88;;
25988;SDS011;13778;48.236;9.894;2023-04-07T04:22:35;14.15;;;10.88;;
25988;SDS011;13778;48.236;9.894;2023-04-07T04:25:26;16.33;;;10.73;;
25988;SDS011;13778;48.236;9.894;2023-04-07T04:28:16;16.58;;;10.88;;
25988;SDS011;13778;48.236;9.894;2023-04-07T04:31:07;13.00;;;10.13;;
25988;SDS011;13778;48.236;9.894;2023-04-07T04:33:57;15.57;;;9.98;;
25988;SDS011;13778;48.236;9.894;2023-04-07T04:36:47;16.08;;;11.27;;
25988;SDS011;13778;48.236;9.894;2023-04-07T04:39:39;15.07;;;10.57;;
25988;SDS011;13778;48.236;9.894;2023-04-07T04:42:30;14.70;;;11.30;;
25988;SDS011;13778;48.236;9.894;2023-04-07T04:45:21;13.88;;;10.32;;
25988;SDS011;13778;48.236;9.894;2023-04-07T04:48:12;15.27;;;11.13;;
25988;SDS011;13778;48.236;9.894;2023-04-07T04:51:03;16.23;;;11.38;;
25988;SDS011;13778;48.236;9.894;2023-04-07T04:53:53;17.90;;;10.95;;
25988;SDS011;13778;48.236;9.894;2023-04-07T04:56:45;15.77;;;11.07;;
25988;SDS011;13778;48.236;9.894;2023-04-07T05:02:25;15.23;;;10.45;;
25988;SDS011;13778;48.236;9.894;2023-04-07T05:05:16;16.38;;;11.48;;
25988;SDS011;13778;48.236;9.894;2023-04-07T05:08:07;13.60;;;10.18;;
25988;SDS011;13778;48.236;9.894;2023-04-07T05:10:58;15.13;;;10.80;;
25988;SDS011;13778;48.236;9.894;2023-04-07T05:13:49;16.10;;;11.23;;
25988;SDS011;13778;48.236;9.894;2023-04-07T05:16:40;18.50;;;11.25;;
25988;SDS011;13778;48.236;9.894;2023-04-07T05:19:30;15.68;;;11.52;;
25988;SDS011;13778;48.236;9.894;2023-04-07T05:22:21;15.45;;;10.60;;
25988;SDS011;13778;48.236;9.894;2023-04-07T05:25:12;20.45;;;14.55;;
25988;SDS011;13778;48.236;9.894;2023-04-07T05:28:02;15.77;;;11.43;;
25988;SDS011;13778;48.236;9.894;2023-04-07T05:30:54;17.08;;;12.75;;
25988;SDS011;13778;48.236;9.894;2023-04-07T05:33:44;18.17;;;11.43;;
25988;SDS011;13778;48.236;9.894;2023-04-07T05:36:35;18.58;;;11.02;;
25988;SDS011;13778;48.236;9.894;2023-04-07T05:39:25;17.95;;;11.52;;
25988;SDS011;13778;48.236;9.894;2023-04-07T05:42:16;16.52;;;11.30;;
25988;SDS011;13778;48.236;9.894;2023-04-07T05:45:08;16.98;;;12.10;;
25988;SDS011;13778;48.236;9.894;2023-04-07T05:48:00;17.35;;;11.57;;
25988;SDS011;13778;48.236;9.894;2023-04-07T05:53:41;14.07;;;10.68;;
25988;SDS011;13778;48.236;9.894;2023-04-07T05:56:31;16.38;;;11.35;;
25988;SDS011;13778;48.236;9.894;2023-04-07T05:59:22;14.75;;;11.15;;
25988;SDS011;13778;48.236;9.894;2023-04-07T06:02:12;17.08;;;11.75;;
25988;SDS011;13778;48.236;9.894;2023-04-07T06:05:05;16.42;;;11.05;;
25988;SDS011;13778;48.236;9.894;2023-04-07T06:07:55;17.73;;;10.52;;
25988;SDS011;13778;48.236;9.894;2023-04-07T06:10:45;15.48;;;11.80;;
25988;SDS011;13778;48.236;9.894;2023-04-07T06:13:36;15.90;;;11.55;;
25988;SDS011;13778;48.236;9.894;2023-04-07T06:16:26;17.17;;;12.05;;
25988;SDS011;13778;48.236;9.894;2023-04-07T06:19:17;15.85;;;10.07;;
25988;SDS011;13778;48.236;9.894;2023-04-07T06:22:09;18.08;;;13.13;;
25988;SDS011;13778;48.236;9.894;2023-04-07T06:27:50;16.50;;;11.43;;
25988;SDS011;13778;48.236;9.894;2023-04-07T06:30:40;17.00;;;11.57;;
25988;SDS011;13778;48.236;9.894;2023-04-07T06:33:31;16.20;;;11.70;;
25988;SDS011;13778;48.236;9.894;2023-04-07T06:36:21;17.50;;;12.85;;
25988;SDS011;13778;48.236;9.894;2023-04-07T06:39:14;18.10;;;12.60;;
25988;SDS011;13778;48.236;9.894;2023-04-07T06:42:04;14.02;;;10.95;;
25988;SDS011;13778;48.236;9.894;2023-04-07T06:44:54;17.92;;;12.60;;
25988;SDS011;13778;48.236;9.894;2023-04-07T06:47:45;16.02;;;11.95;;
25988;SDS011;13778;48.236;9.894;2023-04-07T06:50:35;19.75;;;13.23;;
25988;SDS011;13778;48.236;9.894;2023-04-07T06:53:26;14.63;;;11.63;;
25988;SDS011;13778;48.236;9.894;2023-04-07T06:56:18;18.52;;;12.63;;
25988;SDS011;13778;48.236;9.894;2023-04-07T07:01:58;16.15;;;11.02;;
25988;SDS011;13778;48.236;9.894;2023-04-07T07:04:49;19.75;;;11.43;;
25988;SDS011;13778;48.236;9.894;2023-04-07T07:07:40;16.85;;;12.60;;
25988;SDS011;13778;48.236;9.894;2023-04-07T07:10:30;14.43;;;11.18;;
25988;SDS011;13778;48.236;9.894;2023-04-07T07:13:23;17.25;;;11.77;;
25988;SDS011;13778;48.236;9.894;2023-04-07T07:16:14;14.95;;;11.05;;
25988;SDS011;13778;48.236;9.894;2023-04-07T07:19:04;17.23;;;12.25;;
25988;SDS011;13778;48.236;9.894;2023-04-07T07:21:54;16.98;;;11.50;;
25988;SDS011;13778;48.236;9.894;2023-04-07T07:24:45;17.35;;;11.93;;
25988;SDS011;13778;48.236;9.894;2023-04-07T07:27:35;18.08;;;11.90;;
25988;SDS011;13778;48.236;9.894;2023-04-07T07:30:27;19.25;;;11.45;;
25988;SDS011;13778;48.236;9.894;2023-04-07T07:33:18;13.98;;;10.75;;
25988;SDS011;13778;48.236;9.894;2023-04-07T07:36:08;15.07;;;10.80;;
25988;SDS011;13778;48.236;9.894;2023-04-07T07:38:59;16.88;;;10.77;;
25988;SDS011;13778;48.236;9.894;2023-04-07T07:41:50;14.75;;;10.48;;
25988;SDS011;13778;48.236;9.894;2023-04-07T07:44:40;14.45;;;11.20;;
25988;SDS011;13778;48.236;9.894;2023-04-07T07:47:32;16.98;;;10.75;;
25988;SDS011;13778;48.236;9.894;2023-04-07T07:50:25;14.90;;;9.48;;
25988;SDS011;13778;48.236;9.894;2023-04-07T07:53:16;13.93;;;10.55;;
25988;SDS011;13778;48.236;9.894;2023-04-07T07:56:06;15.93;;;11.43;;
25988;SDS011;13778;48.236;9.894;2023-04-07T07:58:57;14.25;;;10.20;;
25988;SDS011;13778;48.236;9.894;2023-04-07T08:01:48;13.90;;;9.85;;
25988;SDS011;13778;48.236;9.894;2023-04-07T08:04:41;16.30;;;9.77;;
25988;SDS011;13778;48.236;9.894;2023-04-07T08:07:31;12.13;;;9.95;;
25988;SDS011;13778;48.236;9.894;2023-04-07T08:10:22;15.23;;;10.32;;
25988;SDS011;13778;48.236;9.894;2023-04-07T08:13:13;12.85;;;10.10;;
25988;SDS011;13778;48.236;9.894;2023-04-07T08:16:04;14.15;;;9.82;;
25988;SDS011;13778;48.236;9.894;2023-04-07T08:18:55;14.25;;;10.25;;
25988;SDS011;13778;48.236;9.894;2023-04-07T08:21:46;13.35;;;10.35;;
25988;SDS011;13778;48.236;9.894;2023-04-07T08:24:37;12.23;;;10.10;;
25988;SDS011;13778;48.236;9.894;2023-04-07T08:27:27;12.68;;;9.68;;
25988;SDS011;13778;48.236;9.894;2023-04-07T08:30:17;12.95;;;9.55;;
25988;SDS011;13778;48.236;9.894;2023-04-07T08:33:09;12.82;;;9.05;;
25988;SDS011;13778;48.236;9.894;2023-04-07T08:35:59;12.70;;;9.35;;
25988;SDS011;13778;48.236;9.894;2023-04-07T08:38:51;13.32;;;9.95;;
25988;SDS011;13778;48.236;9.894;2023-04-07T08:44:33;12.30;;;9.00;;
25988;SDS011;13778;48.236;9.894;2023-04-07T08:47:26;14.45;;;9.52;;
25988;SDS011;13778;48.236;9.894;2023-04-07T08:50:17;12.13;;;9.07;;
25988;SDS011;13778;48.236;9.894;2023-04-07T08:53:08;15.03;;;9.50;;
25988;SDS011;13778;48.236;9.894;2023-04-07T08:58:52;10.75;;;7.53;;
25988;SDS011;13778;48.236;9.894;2023-04-07T09:01:43;11.50;;;9.13;;
25988;SDS011;13778;48.236;9.894;2023-04-07T09:04:34;10.05;;;8.80;;
25988;SDS011;13778;48.236;9.894;2023-04-07T09:07:25;11.88;;;8.48;;
25988;SDS011;13778;48.236;9.894;2023-04-07T09:10:15;10.77;;;6.70;;
25988;SDS011;13778;48.236;9.894;2023-04-07T09:13:06;9.82;;;8.52;;
25988;SDS011;13778;48.236;9.894;2023-04-07T09:16:00;9.73;;;6.72;;
25988;SDS011;13778;48.236;9.894;2023-04-07T09:18:51;10.43;;;5.82;;
25988;SDS011;13778;48.236;9.894;2023-04-07T09:21:48;10.93;;;7.38;;
25988;SDS011;13778;48.236;9.894;2023-04-07T09:24:39;10.27;;;7.18;;
25988;SDS011;13778;48.236;9.894;2023-04-07T09:27:30;9.43;;;7.60;;
25988;SDS011;13778;48.236;9.894;2023-04-07T09:30:21;11.07;;;8.00;;
25988;SDS011;13778;48.236;9.894;2023-04-07T09:33:13;9.35;;;8.05;;
25988;SDS011;13778;48.236;9.894;2023-04-07T09:36:05;10.38;;;8.43;;
25988;SDS011;13778;48.236;9.894;2023-04-07T09:38:56;11.60;;;7.97;;
25988;SDS011;13778;48.236;9.894;2023-04-07T09:41:56;10.93;;;8.73;;
25988;SDS011;13778;48.236;9.894;2023-04-07T09:44:47;10.05;;;7.95;;
25988;SDS011;13778;48.236;9.894;2023-04-07T09:47:37;12.73;;;7.47;;
25988;SDS011;13778;48.236;9.894;2023-04-07T09:50:33;12.10;;;7.85;;
25988;SDS011;13778;48.236;9.894;2023-04-07T09:53:24;11.70;;;8.48;;
25988;SDS011;13778;48.236;9.894;2023-04-07T09:56:29;10.30;;;8.10;;
25988;SDS011;13778;48.236;9.894;2023-04-07T09:59:20;9.52;;;8.05;;
25988;SDS011;13778;48.236;9.894;2023-04-07T10:02:11;9.18;;;7.00;;
25988;SDS011;13778;48.236;9.894;2023-04-07T10:05:01;13.77;;;7.88;;
25988;SDS011;13778;48.236;9.894;2023-04-07T10:07:53;11.23;;;7.78;;
25988;SDS011;13778;48.236;9.894;2023-04-07T10:10:44;12.13;;;7.40;;
25988;SDS011;13778;48.236;9.894;2023-04-07T10:13:36;11.10;;;7.50;;
25988;SDS011;13778;48.236;9.894;2023-04-07T10:16:26;8.20;;;6.80;;
25988;SDS011;13778;48.236;9.894;2023-04-07T10:19:18;7.85;;;7.00;;
25988;SDS011;13778;48.236;9.894;2023-04-07T10:22:08;7.18;;;6.38;;
25988;SDS011;13778;48.236;9.894;2023-04-07T10:25:01;8.23;;;6.47;;
25988;SDS011;13778;48.236;9.894;2023-04-07T10:27:55;9.15;;;6.20;;
25988;SDS011;13778;48.236;9.894;2023-04-07T10:30:46;8.80;;;5.72;;
25988;SDS011;13778;48.236;9.894;2023-04-07T10:33:44;9.88;;;6.80;;
25988;SDS011;13778;48.236;9.894;2023-04-07T10:36:34;12.45;;;6.47;;
25988;SDS011;13778;48.236;9.894;2023-04-07T10:39:25;9.27;;;6.95;;
25988;SDS011;13778;48.236;9.894;2023-04-07T10:48:35;10.45;;;7.63;;
25988;SDS011;13778;48.236;9.894;2023-04-07T10:51:26;11.48;;;8.02;;
25988;SDS011;13778;48.236;9.894;2023-04-07T10:54:17;11.38;;;8.20;;
25988;SDS011;13778;48.236;9.894;2023-04-07T10:57:10;11.88;;;8.45;;
25988;SDS011;13778;48.236;9.894;2023-04-07T11:00:13;12.95;;;8.88;;
25988;SDS011;13778;48.236;9.894;2023-04-07T11:03:09;11.85;;;8.63;;
25988;SDS011;13778;48.236;9.894;2023-04-07T11:06:04;12.10;;;8.75;;
25988;SDS011;13778;48.236;9.894;2023-04-07T11:08:56;11.77;;;8.85;;
25988;SDS011;13778;48.236;9.894;2023-04-07T11:11:46;10.52;;;8.57;;
25988;SDS011;13778;48.236;9.894;2023-04-07T11:14:36;11.68;;;8.82;;
25988;SDS011;13778;48.236;9.894;2023-04-07T11:17:28;9.52;;;7.78;;
25988;SDS011;13778;48.236;9.894;2023-04-07T11:20:19;10.35;;;7.85;;
25988;SDS011;13778;48.236;9.894;2023-04-07T11:23:11;10.07;;;8.20;;
25988;SDS011;13778;48.236;9.894;2023-04-07T11:26:01;10.50;;;8.52;;
25988;SDS011;13778;48.236;9.894;2023-04-07T11:28:52;13.38;;;8.98;;
25988;SDS011;13778;48.236;9.894;2023-04-07T11:31:43;10.03;;;7.57;;
25988;SDS011;13778;48.236;9.894;2023-04-07T11:34:36;12.48;;;8.10;;
25988;SDS011;13778;48.236;9.894;2023-04-07T11:37:27;11.90;;;8.63;;
25988;SDS011;13778;48.236;9.894;2023-04-07T11:40:31;15.32;;;9.55;;
25988;SDS011;13778;48.236;9.894;2023-04-07T11:43:24;11.50;;;8.43;;
25988;SDS011;13778;48.236;9.894;2023-04-07T11:46:16;10.13;;;8.13;;
25988;SDS011;13778;48.236;9.894;2023-04-07T11:49:07;10.45;;;8.02;;
25988;SDS011;13778;48.236;9.894;2023-04-07T11:51:57;11.02;;;8.18;;
25988;SDS011;13778;48.236;9.894;2023-04-07T11:54:48;10.37;;;8.03;;
25988;SDS011;13778;48.236;9.894;2023-04-07T11:57:40;11.88;;;7.68;;
25988;SDS011;13778;48.236;9.894;2023-04-07T12:00:30;13.23;;;7.45;;
25988;SDS011;13778;48.236;9.894;2023-04-07T12:03:21;9.68;;;7.40;;
25988;SDS011;13778;48.236;9.894;2023-04-07T12:06:11;11.90;;;7.40;;
25988;SDS011;13778;48.236;9.894;2023-04-07T12:09:03;10.30;;;8.03;;
25988;SDS011;13778;48.236;9.894;2023-04-07T12:11:53;10.88;;;8.20;;
25988;SDS011;13778;48.236;9.894;2023-04-07T12:14:45;9.00;;;7.10;;
25988;SDS011;13778;48.236;9.894;2023-04-07T12:17:35;9.90;;;8.07;;
25988;SDS011;13778;48.236;9.894;2023-04-07T12:20:26;10.18;;;7.43;;
25988;SDS011;13778;48.236;9.894;2023-04-07T12:23:17;13.60;;;7.50;;
25988;SDS011;13778;48.236;9.894;2023-04-07T12:26:07;10.10;;;6.95;;
25988;SDS011;13778;48.236;9.894;2023-04-07T12:28:59;11.55;;;7.18;;
25988;SDS011;13778;48.236;9.894;2023-04-07T12:31:54;8.30;;;6.28;;
25988;SDS011;13778;48.236;9.894;2023-04-07T12:37:36;11.60;;;6.95;;
25988;SDS011;13778;48.236;9.894;2023-04-07T12:40:26;8.48;;;6.57;;
25988;SDS011;13778;48.236;9.894;2023-04-07T12:43:17;12.00;;;7.07;;
25988;SDS011;13778;48.236;9.894;2023-04-07T12:46:08;8.88;;;6.70;;
25988;SDS011;13778;48.236;9.894;2023-04-07T12:49:00;7.40;;;5.47;;
25988;SDS011;13778;48.236;9.894;2023-04-07T12:51:50;7.93;;;5.25;;
25988;SDS011;13778;48.236;9.894;2023-04-07T12:54:41;7.80;;;4.72;;
25988;SDS011;13778;48.236;9.894;2023-04-07T12:57:32;6.63;;;4.85;;
25988;SDS011;13778;48.236;9.894;2023-04-07T13:00:22;10.77;;;4.97;;
25988;SDS011;13778;48.236;9.894;2023-04-07T13:03:13;8.10;;;4.80;;
25988;SDS011;13778;48.236;9.894;2023-04-07T13:06:05;9.63;;;4.80;;
25988;SDS011;13778;48.236;9.894;2023-04-07T13:08:55;5.95;;;3.97;;
25988;SDS011;13778;48.236;9.894;2023-04-07T13:11:46;4.22;;;2.80;;
25988;SDS011;13778;48.236;9.894;2023-04-07T13:14:37;8.35;;;4.30;;
25988;SDS011;13778;48.236;9.894;2023-04-07T13:17:27;7.65;;;3.20;;
25988;SDS011;13778;48.236;9.894;2023-04-07T13:20:18;10.18;;;4.22;;
25988;SDS011;13778;48.236;9.894;2023-04-07T13:23:10;9.93;;;4.18;;
25988;SDS011;13778;48.236;9.894;2023-04-07T13:28:50;5.53;;;3.60;;
25988;SDS011;13778;48.236;9.894;2023-04-07T13:31:41;7.88;;;4.15;;
25988;SDS011;13778;48.236;9.894;2023-04-07T13:34:31;6.28;;;2.47;;
25988;SDS011;13778;48.236;9.894;2023-04-07T13:37:22;5.25;;;2.88;;
25988;SDS011;13778;48.236;9.894;2023-04-07T13:40:13;2.90;;;2.25;;
25988;SDS011;13778;48.236;9.894;2023-04-07T13:43:04;3.25;;;1.90;;
25988;SDS011;13778;48.236;9.894;2023-04-07T13:45:56;5.45;;;1.52;;
25988;SDS011;13778;48.236;9.894;2023-04-07T13:48:46;2.25;;;1.88;;
25988;SDS011;13778;48.236;9.894;2023-04-07T13:51:37;3.47;;;2.50;;
25988;SDS011;13778;48.236;9.894;2023-04-07T13:54:28;5.18;;;2.50;;
25988;SDS011;13778;48.236;9.894;2023-04-07T13:57:20;4.97;;;2.70;;
25988;SDS011;13778;48.236;9.894;2023-04-07T14:00:11;4.20;;;3.03;;
25988;SDS011;13778;48.236;9.894;2023-04-07T14:03:02;5.65;;;2.95;;
25988;SDS011;13778;48.236;9.894;2023-04-07T14:05:53;4.60;;;2.85;;
25988;SDS011;13778;48.236;9.894;2023-04-07T14:08:49;4.82;;;3.15;;
25988;SDS011;13778;48.236;9.894;2023-04-07T14:11:39;4.97;;;2.60;;
25988;SDS011;13778;48.236;9.894;2023-04-07T14:14:31;4.00;;;2.70;;
25988;SDS011;13778;48.236;9.894;2023-04-07T14:17:21;5.05;;;3.08;;
25988;SDS011;13778;48.236;9.894;2023-04-07T14:20:12;4.47;;;2.60;;
25988;SDS011;13778;48.236;9.894;2023-04-07T14:23:03;4.07;;;2.38;;
25988;SDS011;13778;48.236;9.894;2023-04-07T14:25:53;1.95;;;1.80;;
25988;SDS011;13778;48.236;9.894;2023-04-07T14:28:44;3.40;;;2.33;;
25988;SDS011;13778;48.236;9.894;2023-04-07T14:31:36;5.32;;;3.95;;
25988;SDS011;13778;48.236;9.894;2023-04-07T14:34:27;12.18;;;8.40;;
25988;SDS011;13778;48.236;9.894;2023-04-07T14:37:17;4.72;;;2.90;;
25988;SDS011;13778;48.236;9.894;2023-04-07T14:40:12;5.20;;;3.47;;
25988;SDS011;13778;48.236;9.894;2023-04-07T14:43:02;3.65;;;3.20;;
25988;SDS011;13778;48.236;9.894;2023-04-07T14:45:55;4.30;;;2.65;;
25988;SDS011;13778;48.236;9.894;2023-04-07T14:48:47;3.83;;;2.95;;
25988;SDS011;13778;48.236;9.894;2023-04-07T14:51:37;3.72;;;2.30;;
25988;SDS011;13778;48.236;9.894;2023-04-07T14:54:27;3.80;;;2.75;;
25988;SDS011;13778;48.236;9.894;2023-04-07T14:57:18;3.45;;;2.47;;
25988;SDS011;13778;48.236;9.894;2023-04-07T15:00:10;2.83;;;2.20;;
25988;SDS011;13778;48.236;9.894;2023-04-07T15:03:00;3.72;;;2.10;;
25988;SDS011;13778;48.236;9.894;2023-04-07T15:05:52;2.95;;;1.58;;
25988;SDS011;13778;48.236;9.894;2023-04-07T15:08:43;1.63;;;1.52;;
25988;SDS011;13778;48.236;9.894;2023-04-07T15:11:34;3.97;;;2.60;;
25988;SDS011;13778;48.236;9.894;2023-04-07T15:14:24;3.15;;;2.85;;
25988;SDS011;13778;48.236;9.894;2023-04-07T15:17:15;4.65;;;2.58;;
25988;SDS011;13778;48.236;9.894;2023-04-07T15:20:06;2.10;;;1.90;;
25988;SDS011;13778;48.236;9.894;2023-04-07T15:22:57;1.30;;;1.20;;
25988;SDS011;13778;48.236;9.894;2023-04-07T15:25:49;4.78;;;1.77;;
25988;SDS011;13778;48.236;9.894;2023-04-07T15:28:44;1.38;;;1.27;;
25988;SDS011;13778;48.236;9.894;2023-04-07T15:31:35;1.83;;;1.50;;
25988;SDS011;13778;48.236;9.894;2023-04-07T15:34:25;4.28;;;1.63;;
25988;SDS011;13778;48.236;9.894;2023-04-07T15:37:16;2.72;;;1.60;;
25988;SDS011;13778;48.236;9.894;2023-04-07T15:40:09;2.60;;;1.70;;
25988;SDS011;13778;48.236;9.894;2023-04-07T15:42:59;1.48;;;1.13;;
25988;SDS011;13778;48.236;9.894;2023-04-07T15:45:49;1.48;;;1.38;;
25988;SDS011;13778;48.236;9.894;2023-04-07T15:48:40;2.95;;;2.08;;
25988;SDS011;13778;48.236;9.894;2023-04-07T15:51:30;2.15;;;1.95;;
25988;SDS011;13778;48.236;9.894;2023-04-07T15:54:21;4.18;;;2.10;;
25988;SDS011;13778;48.236;9.894;2023-04-07T15:57:13;2.35;;;1.80;;
25988;SDS011;13778;48.236;9.894;2023-04-07T16:00:05;1.80;;;1.35;;
25988;SDS011;13778;48.236;9.894;2023-04-07T16:02:55;4.03;;;1.67;;
25988;SDS011;13778;48.236;9.894;2023-04-07T16:05:46;3.63;;;2.10;;
25988;SDS011;13778;48.236;9.894;2023-04-07T16:08:36;2.67;;;1.48;;
25988;SDS011;13778;48.236;9.894;2023-04-07T16:11:27;1.75;;;1.63;;
25988;SDS011;13778;48.236;9.894;2023-04-07T16:14:19;2.65;;;1.52;;
25988;SDS011;13778;48.236;9.894;2023-04-07T16:19:59;2.60;;;1.60;;
25988;SDS011;13778;48.236;9.894;2023-04-07T16:22:50;2.40;;;1.50;;
25988;SDS011;13778;48.236;9.894;2023-04-07T16:25:40;4.68;;;1.73;;
25988;SDS011;13778;48.236;9.894;2023-04-07T16:28:31;1.67;;;1.38;;
25988;SDS011;13778;48.236;9.894;2023-04-07T16:31:23;2.05;;;1.85;;
25988;SDS011;13778;48.236;9.894;2023-04-07T16:34:13;3.17;;;2.72;;
25988;SDS011;13778;48.236;9.894;2023-04-07T16:37:03;4.00;;;3.40;;
25988;SDS011;13778;48.236;9.894;2023-04-07T16:39:53;5.00;;;2.75;;
25988;SDS011;13778;48.236;9.894;2023-04-07T16:42:45;4.00;;;3.20;;
25988;SDS011;13778;48.236;9.894;2023-04-07T16:45:35;4.47;;;2.97;;
25988;SDS011;13778;48.236;9.894;2023-04-07T16:48:27;5.65;;;3.25;;
25988;SDS011;13778;48.236;9.894;2023-04-07T16:51:18;3.72;;;2.78;;
25988;SDS011;13778;48.236;9.894;2023-04-07T16:54:09;2.95;;;2.60;;
25988;SDS011;13778;48.236;9.894;2023-04-07T16:56:59;3.88;;;2.97;;
25988;SDS011;13778;48.236;9.894;2023-04-07T16:59:49;4.22;;;2.88;;
25988;SDS011;13778;48.236;9.894;2023-04-07T17:05:37;3.25;;;2.50;;
25988;SDS011;13778;48.236;9.894;2023-04-07T17:08:27;5.88;;;3.28;;
25988;SDS011;13778;48.236;9.894;2023-04-07T17:11:17;5.60;;;3.47;;
25988;SDS011;13778;48.236;9.894;2023-04-07T17:14:08;3.92;;;2.88;;
25988;SDS011;13778;48.236;9.894;2023-04-07T17:16:58;4.35;;;3.33;;
25988;SDS011;13778;48.236;9.894;2023-04-07T17:19:48;6.20;;;4.03;;
25988;SDS011;13778;48.236;9.894;2023-04-07T17:22:40;4.55;;;3.85;;
25988;SDS011;13778;48.236;9.894;2023-04-07T17:25:31;6.00;;;3.90;;
25988;SDS011;13778;48.236;9.894;2023-04-07T17:28:21;5.13;;;3.63;;
25988;SDS011;13778;48.236;9.894;2023-04-07T17:31:12;6.95;;;5.40;;
25988;SDS011;13778;48.236;9.894;2023-04-07T17:34:02;7.53;;;4.50;;
25988;SDS011;13778;48.236;9.894;2023-04-07T17:36:52;6.57;;;4.13;;
25988;SDS011;13778;48.236;9.894;2023-04-07T17:39:44;6.72;;;4.25;;
25988;SDS011;13778;48.236;9.894;2023-04-07T17:42:35;9.57;;;4.68;;
25988;SDS011;13778;48.236;9.894;2023-04-07T17:45:25;6.82;;;3.85;;